createdAt,value
2024-02-11T00:00:52.064Z,2.30
2024-02-11T00:05:54.332Z,1.83
2024-02-11T00:10:57.220Z,1.92
2024-02-11T00:16:02.552Z,2.42
2024-02-11T00:21:06.026Z,2.17
2024-02-11T00:26:08.063Z,1.70
2024-02-11T00:31:09.966Z,2.10
2024-02-11T00:36:11.933Z,1.95
2024-02-11T00:41:13.926Z,2.25
2024-02-11T00:46:16.537Z,2.20
2024-02-11T00:51:20.890Z,3.08
2024-02-11T00:56:22.907Z,2.10
2024-02-11T01:01:25.241Z,2.05
2024-02-11T01:06:28.153Z,1.63
2024-02-11T01:11:30.053Z,2.20
2024-02-11T01:16:32.073Z,1.67
2024-02-11T01:21:34.004Z,2.30
2024-02-11T01:26:38.139Z,1.90
2024-02-11T01:31:42.075Z,1.60
2024-02-11T01:36:47.310Z,1.95
2024-02-11T01:41:49.295Z,1.80
2024-02-11T01:46:51.314Z,2.10
2024-02-11T01:51:54.106Z,1.65
2024-02-11T01:56:56.053Z,1.98
2024-02-11T02:01:59.240Z,1.55
2024-02-11T02:07:01.836Z,1.65
2024-02-11T02:12:05.782Z,1.80
2024-02-11T02:17:08.815Z,1.50
2024-02-11T02:22:11.670Z,2.00
2024-02-11T02:27:13.870Z,1.45
2024-02-11T02:32:16.304Z,1.73
2024-02-11T02:37:18.310Z,2.13
2024-02-11T02:42:21.375Z,1.85
2024-02-11T02:47:23.453Z,2.10
2024-02-11T02:52:27.101Z,2.53
2024-02-11T02:57:29.144Z,2.10
2024-02-11T03:02:31.365Z,2.30
2024-02-11T03:07:33.358Z,2.10
2024-02-11T03:12:35.361Z,2.17
2024-02-11T03:17:37.584Z,1.98
2024-02-11T03:22:39.455Z,1.70
2024-02-11T03:27:43.534Z,1.90
2024-02-11T03:32:48.693Z,2.35
2024-02-11T03:37:50.668Z,2.03
2024-02-11T03:42:53.837Z,2.33
2024-02-11T03:47:55.693Z,1.73
2024-02-11T03:52:59.437Z,1.73
2024-02-11T03:58:05.923Z,1.50
2024-02-11T04:03:09.260Z,3.08
2024-02-11T04:08:13.376Z,1.90
2024-02-11T04:13:15.331Z,1.92
2024-02-11T04:18:22.614Z,2.00
2024-02-11T04:23:26.304Z,2.35
2024-02-11T04:28:29.957Z,1.80
2024-02-11T04:33:32.006Z,2.05
2024-02-11T04:38:35.390Z,2.60
2024-02-11T04:43:38.089Z,2.45
2024-02-11T04:48:39.938Z,2.38
2024-02-11T04:53:42.295Z,2.67
2024-02-11T04:58:45.468Z,1.90
2024-02-11T05:03:48.353Z,1.92
2024-02-11T05:08:51.134Z,2.15
2024-02-11T05:13:53.858Z,2.00
2024-02-11T05:18:55.892Z,2.50
2024-02-11T05:23:59.259Z,2.05
2024-02-11T05:29:04.805Z,2.47
2024-02-11T05:34:07.296Z,2.50
2024-02-11T05:39:11.104Z,2.65
2024-02-11T05:44:13.008Z,2.63
2024-02-11T05:49:14.947Z,2.55
2024-02-11T05:54:18.361Z,3.00
2024-02-11T05:59:21.258Z,2.95
2024-02-11T06:04:23.030Z,3.83
2024-02-11T06:09:25.592Z,2.92
2024-02-11T06:14:28.931Z,3.40
2024-02-11T06:19:31.004Z,3.47
2024-02-11T06:24:33.566Z,3.85
2024-02-11T06:29:37.039Z,3.28
2024-02-11T06:34:39.455Z,3.10
2024-02-11T06:39:41.600Z,3.33
2024-02-11T06:44:43.834Z,3.00
2024-02-11T06:49:45.540Z,3.63
2024-02-11T06:54:48.945Z,3.53
2024-02-11T06:59:51.757Z,4.05
2024-02-11T07:04:57.259Z,3.80
2024-02-11T07:09:59.463Z,4.03
2024-02-11T07:15:01.534Z,3.80
2024-02-11T07:20:04.094Z,4.43
2024-02-11T07:25:07.857Z,3.72
2024-02-11T07:30:13.213Z,4.10
2024-02-11T07:35:17.848Z,3.85
2024-02-11T07:40:20.077Z,3.55
2024-02-11T07:45:22.123Z,4.10
2024-02-11T07:50:24.005Z,4.10
2024-02-11T07:55:25.797Z,3.67
2024-02-11T08:00:29.244Z,3.83
2024-02-11T08:05:31.445Z,4.78
2024-02-11T08:10:33.851Z,4.07
2024-02-11T08:15:39.057Z,3.85
2024-02-11T08:20:41.012Z,4.00
2024-02-11T08:25:44.245Z,4.13
2024-02-11T08:30:46.152Z,3.60
2024-02-11T08:35:48.643Z,3.30
2024-02-11T08:40:50.517Z,3.15
2024-02-11T08:45:54.117Z,2.72
2024-02-11T08:50:56.343Z,2.65
2024-02-11T08:55:59.621Z,2.58
2024-02-11T09:01:01.745Z,2.60
2024-02-11T09:06:05.467Z,2.53
2024-02-11T09:11:07.925Z,2.67
2024-02-11T09:16:10.283Z,2.35
2024-02-11T09:21:12.759Z,2.10
2024-02-11T09:26:18.406Z,2.15
2024-02-11T09:31:20.620Z,2.17
2024-02-11T09:36:22.295Z,1.85
2024-02-11T09:41:25.674Z,1.40
2024-02-11T09:46:36.985Z,1.55
2024-02-11T09:51:39.000Z,1.40
2024-02-11T09:56:43.358Z,1.40
2024-02-11T10:01:45.488Z,2.08
2024-02-11T10:06:48.496Z,1.75
2024-02-11T10:11:51.362Z,2.13
2024-02-11T10:16:54.790Z,1.13
2024-02-11T10:22:09.674Z,1.42
2024-02-11T10:27:19.579Z,1.30
2024-02-11T10:32:21.814Z,1.80
2024-02-11T10:37:23.711Z,1.67
2024-02-11T10:42:26.992Z,2.60
2024-02-11T10:47:29.564Z,1.75
2024-02-11T10:52:41.293Z,1.65
2024-02-11T10:57:50.600Z,2.45
2024-02-11T11:03:02.521Z,2.05
2024-02-11T11:08:05.802Z,1.63
2024-02-11T11:13:10.231Z,1.85
2024-02-11T11:18:12.749Z,2.15
2024-02-11T11:23:15.064Z,1.50
2024-02-11T11:28:17.644Z,1.63
2024-02-11T11:33:19.626Z,1.50
2024-02-11T11:38:25.707Z,1.65
2024-02-11T11:43:30.463Z,1.95
2024-02-11T11:48:38.157Z,1.80
2024-02-11T11:53:45.330Z,1.77
2024-02-11T11:58:52.203Z,1.80
2024-02-11T12:03:54.202Z,1.90
2024-02-11T12:08:55.948Z,2.10
2024-02-11T12:13:58.623Z,2.05
2024-02-11T12:19:02.299Z,2.10
2024-02-11T12:24:09.796Z,1.50
2024-02-11T12:29:11.794Z,1.60
2024-02-11T12:34:15.037Z,0.90
2024-02-11T12:39:17.270Z,1.70
2024-02-11T12:44:22.621Z,0.80
2024-02-11T12:49:24.686Z,1.50
2024-02-11T12:54:26.559Z,1.27
2024-02-11T12:59:28.958Z,0.95
2024-02-11T13:04:30.854Z,0.95
2024-02-11T13:09:33.271Z,0.70
2024-02-11T13:14:35.193Z,0.70
2024-02-11T13:19:37.381Z,0.82
2024-02-11T13:24:39.296Z,0.52
2024-02-11T13:29:42.866Z,0.60
2024-02-11T13:34:45.146Z,0.70
2024-02-11T13:39:50.179Z,1.20
2024-02-11T13:44:52.625Z,1.00
2024-02-11T13:49:55.521Z,1.00
2024-02-11T13:54:57.755Z,1.30
2024-02-11T13:59:59.890Z,1.20
2024-02-11T14:05:05.037Z,1.23
2024-02-11T14:10:08.833Z,1.08
2024-02-11T14:15:12.823Z,1.17
2024-02-11T14:20:15.961Z,1.02
2024-02-11T14:25:20.231Z,1.10
2024-02-11T14:30:23.639Z,0.77
2024-02-11T14:35:27.031Z,1.42
2024-02-11T14:40:29.921Z,1.33
2024-02-11T14:45:32.167Z,1.20
2024-02-11T14:50:34.069Z,1.25
2024-02-11T14:55:35.882Z,1.30
2024-02-11T15:00:40.619Z,1.45
2024-02-11T15:05:42.886Z,1.10
2024-02-11T15:10:44.857Z,1.40
2024-02-11T15:15:46.821Z,1.30
2024-02-11T15:20:48.689Z,1.30
2024-02-11T15:25:50.611Z,1.20
2024-02-11T15:30:53.449Z,1.10
2024-02-11T15:35:56.704Z,0.90
2024-02-11T15:40:59.717Z,1.17
2024-02-11T15:46:02.538Z,1.35
2024-02-11T15:51:05.426Z,1.10
2024-02-11T15:56:07.871Z,1.00
2024-02-11T16:01:09.562Z,0.82
2024-02-11T16:06:12.318Z,1.80
2024-02-11T16:11:14.251Z,1.48
2024-02-11T16:16:17.279Z,1.58
2024-02-11T16:21:19.207Z,1.48
2024-02-11T16:26:22.162Z,1.20
2024-02-11T16:31:25.140Z,1.30
2024-02-11T16:36:26.925Z,1.40
2024-02-11T16:41:29.002Z,1.25
2024-02-11T16:46:30.875Z,1.17
2024-02-11T16:51:33.424Z,1.52
2024-02-11T16:56:35.375Z,1.20
2024-02-11T17:01:37.834Z,1.88
2024-02-11T17:06:39.644Z,1.52
2024-02-11T17:11:44.740Z,1.50
2024-02-11T17:16:47.026Z,1.65
2024-02-11T17:21:49.488Z,1.05
2024-02-11T17:26:51.617Z,1.20
2024-02-11T17:31:54.563Z,1.33
2024-02-11T17:36:59.479Z,1.50
2024-02-11T17:42:01.328Z,1.40
2024-02-11T17:47:03.088Z,1.40
2024-02-11T17:52:05.993Z,1.52
2024-02-11T17:57:07.853Z,1.42
2024-02-11T18:02:12.084Z,1.42
2024-02-11T18:07:15.649Z,1.58
2024-02-11T18:12:17.418Z,1.10
2024-02-11T18:17:19.376Z,1.10
2024-02-11T18:22:21.335Z,1.30
2024-02-11T18:27:25.224Z,1.23
2024-02-11T18:32:27.479Z,1.48
2024-02-11T18:37:29.356Z,1.20
2024-02-11T18:42:31.898Z,1.35
2024-02-11T18:47:35.978Z,1.17
2024-02-11T18:52:39.397Z,1.30
2024-02-11T18:57:47.643Z,1.35
2024-02-11T19:02:50.094Z,1.38
2024-02-11T19:07:52.214Z,1.50
2024-02-11T19:12:55.085Z,1.60
2024-02-11T19:17:57.157Z,1.85
2024-02-11T19:22:59.066Z,1.98
2024-02-11T19:28:01.057Z,1.98
2024-02-11T19:33:03.000Z,2.10
2024-02-11T19:38:05.117Z,1.67
2024-02-11T19:43:06.872Z,1.75
2024-02-11T19:48:11.453Z,1.50
2024-02-11T19:53:25.646Z,1.70
2024-02-11T19:58:40.304Z,1.90
2024-02-11T20:03:47.032Z,1.90
2024-02-11T20:08:52.825Z,1.98
2024-02-11T20:13:56.012Z,3.07
2024-02-11T20:18:57.743Z,2.25
2024-02-11T20:23:59.505Z,1.90
2024-02-11T20:29:01.237Z,2.20
2024-02-11T20:34:03.009Z,1.92
2024-02-11T20:39:07.278Z,2.03
2024-02-11T20:44:12.698Z,1.90
2024-02-11T20:49:14.728Z,2.50
2024-02-11T20:54:16.560Z,2.20
2024-02-11T20:59:18.801Z,2.13
2024-02-11T21:04:20.705Z,2.08
2024-02-11T21:09:22.659Z,2.10
2024-02-11T21:14:26.957Z,2.50
2024-02-11T21:19:28.732Z,2.30
2024-02-11T21:24:30.870Z,2.30
2024-02-11T21:29:32.879Z,2.92
2024-02-11T21:34:36.618Z,3.33
2024-02-11T21:39:41.991Z,3.85
2024-02-11T21:44:44.669Z,4.03
2024-02-11T21:49:46.865Z,4.45
2024-02-11T21:54:48.725Z,3.92
2024-02-11T21:59:50.885Z,2.92
2024-02-11T22:04:52.966Z,3.00
2024-02-11T22:09:54.862Z,2.72
2024-02-11T22:14:56.828Z,2.85
2024-02-11T22:20:05.766Z,3.35
2024-02-11T22:25:09.525Z,3.83
2024-02-11T22:30:12.180Z,2.97
2024-02-11T22:35:14.600Z,3.00
2024-02-11T22:40:17.374Z,2.92
2024-02-11T22:45:19.109Z,2.55
2024-02-11T22:50:21.352Z,2.30
2024-02-11T22:55:23.285Z,2.33
2024-02-11T23:00:36.978Z,2.30
2024-02-11T23:05:40.225Z,2.47
2024-02-11T23:10:43.387Z,2.85
2024-02-11T23:15:45.272Z,2.63
2024-02-11T23:20:47.470Z,2.30
2024-02-11T23:25:49.296Z,2.42
2024-02-11T23:30:50.990Z,2.50
2024-02-11T23:35:53.082Z,2.53
2024-02-11T23:40:54.822Z,2.88
2024-02-11T23:46:01.150Z,2.70
2024-02-11T23:51:05.633Z,2.30
2024-02-11T23:56:07.728Z,2.35
